Hidrolina, Brazil
Current Conditions -  °F | °C
As of 2:00 AM on Saturday 25 Oct 2014 (Local Time) from SBAN Reporting Station
Broken Clouds Broken Clouds  
Wind Chill: 68°   Ceiling: 9000
Heat Index: 68°   Visibility: 6mi
Dew Point: 61°   Wind: 12mph
Humidity: 78%   Direction: 190°S
Pressure: 30.03"   Gusts: NA
Location:  14.72°S, 49.46°W
Report Text: SBAN 250400Z 19010KT 9999 SCT030 BKN090 20/16 Q1017
Loading
Personal Weather Stations






























Interactive Weather Map
Tropical Storm Tracking
New forecast layout! Learn more

10-Day Weather Forecast

Advertisements
Track Severe Weather on mobile